createdAt,value
2019-04-29T00:00:05.130Z,2.37
2019-04-29T00:02:38.250Z,2.50
2019-04-29T00:05:09.837Z,2.40
2019-04-29T00:07:40.988Z,2.42
2019-04-29T00:10:14.491Z,2.65
2019-04-29T00:12:45.330Z,2.50
2019-04-29T00:15:37.771Z,2.42
2019-04-29T00:18:14.185Z,2.72
2019-04-29T00:20:49.920Z,3.15
2019-04-29T00:23:22.117Z,2.55
2019-04-29T00:25:53.091Z,2.90
2019-04-29T00:28:23.920Z,2.90
2019-04-29T00:30:54.876Z,2.30
2019-04-29T00:33:25.665Z,2.60
2019-04-29T00:35:56.305Z,2.50
2019-04-29T00:38:39.796Z,2.70
2019-04-29T00:41:29.560Z,2.40
2019-04-29T00:44:06.556Z,2.30
2019-04-29T00:46:37.380Z,2.67
2019-04-29T00:49:08.137Z,2.67
2019-04-29T00:51:39.158Z,2.20
2019-04-29T00:54:16.672Z,2.50
2019-04-29T00:56:52.408Z,2.50
2019-04-29T00:59:23.531Z,2.50
2019-04-29T01:02:00.837Z,2.30
2019-04-29T01:04:35.550Z,2.40
2019-04-29T01:07:07.305Z,2.55
2019-04-29T01:09:39.432Z,2.70
2019-04-29T01:12:12.904Z,2.65
2019-04-29T01:14:43.786Z,2.55
2019-04-29T01:17:14.653Z,2.67
2019-04-29T01:19:45.568Z,2.58
2019-04-29T01:22:16.551Z,3.00
2019-04-29T01:24:47.603Z,2.92
2019-04-29T01:27:26.733Z,2.90
2019-04-29T01:29:57.610Z,2.83
2019-04-29T01:32:28.463Z,3.00
2019-04-29T01:34:59.281Z,2.80
2019-04-29T01:37:43.297Z,3.10
2019-04-29T01:40:35.890Z,2.90
2019-04-29T01:43:06.964Z,2.70
2019-04-29T01:45:37.811Z,2.40
2019-04-29T01:48:08.662Z,2.80
2019-04-29T01:50:39.662Z,2.65
2019-04-29T01:53:10.686Z,2.77
2019-04-29T01:55:41.478Z,2.80
2019-04-29T01:58:12.221Z,2.55
2019-04-29T02:00:45.472Z,2.50
2019-04-29T02:03:16.849Z,2.40
2019-04-29T02:05:51.064Z,2.70
2019-04-29T02:08:21.871Z,2.60
2019-04-29T02:10:54.203Z,2.77
2019-04-29T02:13:27.158Z,2.95
2019-04-29T02:15:57.995Z,2.60
2019-04-29T02:18:28.961Z,2.65
2019-04-29T02:20:59.826Z,2.80
2019-04-29T02:23:52.507Z,2.90
2019-04-29T02:26:23.214Z,2.67
2019-04-29T02:28:53.963Z,2.65
2019-04-29T02:31:41.698Z,2.75
2019-04-29T02:34:12.532Z,3.00
2019-04-29T02:36:43.507Z,2.67
2019-04-29T02:39:37.094Z,2.90
2019-04-29T02:42:27.587Z,2.50
2019-04-29T02:45:03.219Z,2.70
2019-04-29T02:47:34.075Z,2.60
2019-04-29T02:50:05.700Z,2.80
2019-04-29T02:52:36.542Z,2.90
2019-04-29T02:55:09.466Z,2.85
2019-04-29T02:57:48.399Z,3.65
2019-04-29T03:00:47.119Z,3.60
2019-04-29T03:03:24.246Z,2.87
2019-04-29T03:05:59.123Z,3.02
2019-04-29T03:08:33.144Z,2.70
2019-04-29T03:11:10.073Z,3.05
2019-04-29T03:13:40.903Z,2.70
2019-04-29T03:19:02.262Z,2.80
2019-04-29T03:21:50.878Z,2.80
2019-04-29T03:24:21.747Z,2.67
2019-04-29T03:26:52.748Z,3.20
2019-04-29T03:29:25.609Z,2.80
2019-04-29T03:32:16.996Z,2.80
2019-04-29T03:34:54.522Z,2.95
2019-04-29T03:37:25.427Z,2.98
2019-04-29T03:39:57.259Z,2.85
2019-04-29T03:42:28.006Z,2.80
2019-04-29T03:44:58.869Z,2.52
2019-04-29T03:47:29.498Z,2.70
2019-04-29T03:50:00.351Z,3.52
2019-04-29T03:52:30.995Z,3.45
2019-04-29T03:55:01.663Z,2.80
2019-04-29T03:57:36.271Z,3.02
2019-04-29T04:00:08.898Z,2.77
2019-04-29T04:02:58.112Z,2.70
2019-04-29T04:05:38.948Z,2.47
2019-04-29T04:08:14.384Z,2.55
2019-04-29T04:10:45.631Z,2.77
2019-04-29T04:13:16.416Z,2.85
2019-04-29T04:15:47.248Z,2.70
2019-04-29T04:18:27.871Z,2.40
2019-04-29T04:20:58.594Z,2.62
2019-04-29T04:23:30.608Z,2.80
2019-04-29T04:26:01.266Z,2.65
2019-04-29T04:28:31.991Z,2.85
2019-04-29T04:31:06.535Z,2.83
2019-04-29T04:33:35.345Z,2.80
2019-04-29T04:36:07.156Z,2.52
2019-04-29T04:38:38.979Z,2.72
2019-04-29T04:41:11.355Z,2.65
2019-04-29T04:43:42.022Z,2.83
2019-04-29T04:46:12.788Z,2.80
2019-04-29T04:48:43.561Z,2.60
2019-04-29T04:51:14.193Z,3.02
2019-04-29T04:53:44.887Z,2.60
2019-04-29T04:56:15.684Z,11.25
2019-04-29T04:58:46.663Z,2.80
2019-04-29T05:01:17.749Z,2.62
2019-04-29T05:03:48.402Z,2.70
2019-04-29T05:06:19.122Z,2.70
2019-04-29T05:08:49.681Z,2.50
2019-04-29T05:11:20.357Z,2.75
2019-04-29T05:13:51.008Z,2.55
2019-04-29T05:16:21.583Z,2.60
2019-04-29T05:18:52.749Z,2.75
2019-04-29T05:21:23.797Z,2.72
2019-04-29T05:23:55.553Z,2.50
2019-04-29T05:26:26.250Z,2.35
2019-04-29T05:28:56.951Z,2.20
2019-04-29T05:31:27.652Z,2.58
2019-04-29T05:33:58.225Z,2.22
2019-04-29T05:36:38.130Z,2.45
2019-04-29T05:39:16.314Z,2.47
2019-04-29T05:41:47.089Z,2.40
2019-04-29T05:44:42.079Z,2.20
2019-04-29T05:47:17.927Z,2.35
2019-04-29T05:50:06.796Z,2.17
2019-04-29T05:52:53.457Z,2.70
2019-04-29T05:55:24.037Z,2.40
2019-04-29T05:58:03.017Z,2.50
2019-04-29T06:00:30.548Z,4.47
2019-04-29T06:03:01.157Z,2.37
2019-04-29T06:05:31.821Z,2.67
2019-04-29T06:08:03.005Z,2.52
2019-04-29T06:10:33.605Z,2.62
2019-04-29T06:13:04.201Z,2.58
2019-04-29T06:15:34.905Z,2.65
2019-04-29T06:18:05.698Z,2.50
2019-04-29T06:20:36.451Z,2.60
2019-04-29T06:23:07.056Z,2.40
2019-04-29T06:25:37.847Z,2.87
2019-04-29T06:28:08.558Z,2.55
2019-04-29T06:30:40.697Z,2.33
2019-04-29T06:33:11.665Z,2.75
2019-04-29T06:35:47.019Z,15.23
2019-04-29T06:38:15.611Z,2.92
2019-04-29T06:40:46.287Z,2.55
2019-04-29T06:43:17.161Z,2.60
2019-04-29T06:45:48.394Z,2.70
2019-04-29T06:48:18.905Z,2.80
2019-04-29T06:50:50.693Z,2.72
2019-04-29T06:53:21.709Z,2.50
2019-04-29T06:55:52.650Z,2.55
2019-04-29T06:58:23.265Z,2.95
2019-04-29T07:00:55.738Z,2.80
2019-04-29T07:03:26.698Z,2.90
2019-04-29T07:05:56.814Z,2.75
2019-04-29T07:08:27.517Z,2.72
2019-04-29T07:11:01.091Z,2.95
2019-04-29T07:13:29.912Z,2.70
2019-04-29T07:16:00.500Z,2.60
2019-04-29T07:18:31.250Z,2.90
2019-04-29T07:21:01.985Z,3.02
2019-04-29T07:23:32.709Z,3.25
2019-04-29T07:26:03.385Z,2.85
2019-04-29T07:28:34.108Z,2.87
2019-04-29T07:31:04.799Z,2.50
2019-04-29T07:33:35.383Z,2.60
2019-04-29T07:36:11.292Z,2.85
2019-04-29T07:38:41.719Z,2.67
2019-04-29T07:41:10.121Z,3.10
2019-04-29T07:43:43.009Z,2.55
2019-04-29T07:46:20.621Z,4.58
2019-04-29T07:49:01.171Z,3.05
2019-04-29T07:51:25.455Z,3.17
2019-04-29T07:53:55.456Z,2.80
2019-04-29T07:56:25.954Z,3.35
2019-04-29T07:58:58.958Z,3.42
2019-04-29T08:01:28.963Z,3.15
2019-04-29T08:03:59.659Z,2.90
2019-04-29T08:06:30.966Z,2.90
2019-04-29T08:09:07.394Z,3.12
2019-04-29T08:11:35.062Z,2.72
2019-04-29T08:14:06.024Z,3.10
2019-04-29T08:16:36.664Z,3.00
2019-04-29T08:19:07.380Z,3.40
2019-04-29T08:21:38.067Z,3.22
2019-04-29T08:24:11.638Z,3.55
2019-04-29T08:26:47.072Z,3.30
2019-04-29T08:29:11.884Z,3.20
2019-04-29T08:31:57.117Z,3.50
2019-04-29T08:34:28.217Z,3.15
2019-04-29T08:36:58.980Z,3.52
2019-04-29T08:39:31.118Z,3.40
2019-04-29T08:42:03.348Z,2.98
2019-04-29T08:44:54.623Z,3.27
2019-04-29T08:47:31.604Z,3.17
2019-04-29T08:50:01.096Z,3.00
2019-04-29T08:52:31.951Z,3.00
2019-04-29T08:55:01.973Z,3.30
2019-04-29T08:57:36.290Z,2.90
2019-04-29T09:00:05.259Z,3.05
2019-04-29T09:02:41.534Z,3.02
2019-04-29T09:05:13.220Z,3.27
2019-04-29T09:07:44.119Z,3.00
2019-04-29T09:10:14.218Z,2.55
2019-04-29T09:12:44.821Z,3.05
2019-04-29T09:15:15.018Z,2.75
2019-04-29T09:17:45.583Z,2.92
2019-04-29T09:20:16.715Z,3.12
2019-04-29T09:22:52.804Z,3.10
2019-04-29T09:26:01.728Z,2.83
2019-04-29T09:28:27.017Z,3.55
2019-04-29T09:30:52.921Z,3.35
2019-04-29T09:33:23.582Z,3.22
2019-04-29T09:35:55.819Z,3.08
2019-04-29T09:38:32.455Z,3.52
2019-04-29T09:41:12.066Z,3.33
2019-04-29T09:43:59.070Z,3.62
2019-04-29T09:46:34.539Z,3.60
2019-04-29T09:49:02.789Z,3.15
2019-04-29T09:51:33.569Z,3.98
2019-04-29T09:54:04.225Z,3.62
2019-04-29T09:56:35.005Z,3.12
2019-04-29T09:59:24.463Z,3.45
2019-04-29T10:02:31.386Z,3.20
2019-04-29T10:05:19.577Z,3.00
2019-04-29T10:07:50.408Z,3.47
2019-04-29T10:10:21.917Z,3.27
2019-04-29T10:12:53.870Z,3.72
2019-04-29T10:15:33.593Z,3.08
2019-04-29T10:18:12.861Z,3.30
2019-04-29T10:20:55.365Z,3.27
2019-04-29T10:23:26.146Z,3.02
2019-04-29T10:25:56.883Z,3.17
2019-04-29T10:28:38.752Z,3.27
2019-04-29T10:31:04.768Z,2.98
2019-04-29T10:33:35.396Z,3.15
2019-04-29T10:36:07.254Z,2.83
2019-04-29T10:38:40.580Z,2.62
2019-04-29T10:41:21.233Z,2.77
2019-04-29T10:44:09.501Z,2.98
2019-04-29T10:47:08.041Z,3.50
2019-04-29T10:49:42.918Z,3.20
2019-04-29T10:52:13.785Z,2.70
2019-04-29T10:54:44.602Z,2.92
2019-04-29T10:57:17.088Z,3.42
2019-04-29T10:59:50.389Z,3.00
2019-04-29T11:02:39.572Z,3.50
2019-04-29T11:05:32.940Z,3.12
2019-04-29T11:08:17.989Z,3.60
2019-04-29T11:10:48.780Z,3.42
2019-04-29T11:13:19.460Z,2.85
2019-04-29T11:15:51.249Z,3.22
2019-04-29T11:18:23.373Z,3.00
2019-04-29T11:20:55.650Z,3.10
2019-04-29T11:23:41.546Z,12.55
2019-04-29T11:26:30.504Z,3.20
2019-04-29T11:29:04.871Z,3.40
2019-04-29T11:31:36.028Z,2.67
2019-04-29T11:34:34.553Z,2.85
2019-04-29T11:37:06.896Z,3.15
2019-04-29T11:39:37.568Z,3.20
2019-04-29T11:42:10.098Z,3.27
2019-04-29T11:44:40.753Z,3.40
2019-04-29T11:47:11.426Z,3.15
2019-04-29T11:50:07.533Z,2.70
2019-04-29T11:52:36.011Z,3.05
2019-04-29T11:55:08.989Z,3.00
2019-04-29T11:57:46.098Z,3.12
2019-04-29T12:00:27.592Z,2.83
2019-04-29T12:03:00.881Z,3.50
2019-04-29T12:05:40.182Z,3.40
2019-04-29T12:08:17.061Z,3.40
2019-04-29T12:10:51.765Z,2.62
2019-04-29T12:13:28.170Z,2.90
2019-04-29T12:16:03.049Z,3.30
2019-04-29T12:18:38.139Z,2.62
2019-04-29T12:21:25.459Z,3.05
2019-04-29T12:23:58.232Z,2.65
2019-04-29T12:26:29.634Z,3.02
2019-04-29T12:29:00.313Z,3.00
2019-04-29T12:31:49.430Z,2.58
2019-04-29T12:34:47.930Z,2.80
2019-04-29T12:37:37.471Z,2.50
2019-04-29T12:40:26.513Z,2.77
2019-04-29T12:43:17.679Z,2.83
2019-04-29T12:45:57.281Z,2.60
2019-04-29T12:48:27.941Z,2.30
2019-04-29T12:51:01.562Z,2.27
2019-04-29T12:53:33.358Z,2.50
2019-04-29T12:56:07.213Z,2.17
2019-04-29T12:58:36.354Z,2.60
2019-04-29T13:01:49.931Z,2.77
2019-04-29T13:04:04.725Z,2.30
2019-04-29T13:06:54.328Z,2.50
2019-04-29T13:09:35.993Z,2.00
2019-04-29T13:12:18.936Z,2.30
2019-04-29T13:14:46.546Z,1.98
2019-04-29T13:17:30.421Z,2.30
2019-04-29T13:20:07.435Z,2.45
2019-04-29T13:22:36.149Z,2.75
2019-04-29T13:25:08.176Z,3.17
2019-04-29T13:27:39.344Z,2.20
2019-04-29T13:30:15.974Z,2.37
2019-04-29T13:32:44.570Z,2.33
2019-04-29T13:35:15.556Z,2.25
2019-04-29T13:37:46.258Z,2.17
2019-04-29T13:40:18.250Z,2.50
2019-04-29T13:42:51.005Z,2.00
2019-04-29T13:45:27.320Z,2.42
2019-04-29T13:48:11.191Z,2.12
2019-04-29T13:51:07.084Z,2.10
2019-04-29T13:53:38.877Z,2.00
2019-04-29T13:56:18.131Z,2.35
2019-04-29T13:58:41.891Z,2.10
2019-04-29T14:01:32.617Z,2.10
2019-04-29T14:04:06.557Z,2.67
2019-04-29T14:06:39.218Z,2.00
2019-04-29T14:09:12.549Z,2.30
2019-04-29T14:11:44.635Z,2.90
2019-04-29T14:14:22.628Z,2.40
2019-04-29T14:17:11.524Z,2.30
2019-04-29T14:19:40.422Z,1.98
2019-04-29T14:21:57.470Z,2.02
2019-04-29T14:24:28.297Z,1.82
2019-04-29T14:26:58.954Z,2.30
2019-04-29T14:29:30.302Z,2.12
2019-04-29T14:32:01.557Z,2.10
2019-04-29T14:34:39.088Z,1.90
2019-04-29T14:37:20.007Z,2.05
2019-04-29T14:39:44.438Z,1.85
2019-04-29T14:42:30.172Z,2.10
2019-04-29T14:45:12.242Z,2.10
2019-04-29T14:47:52.212Z,1.95
2019-04-29T14:50:24.492Z,1.85
2019-04-29T14:52:55.145Z,1.75
2019-04-29T14:55:27.050Z,1.85
2019-04-29T14:57:58.199Z,1.82
2019-04-29T15:00:57.827Z,2.02
2019-04-29T15:03:31.063Z,1.80
2019-04-29T15:06:01.826Z,1.82
2019-04-29T15:08:36.187Z,1.60
2019-04-29T15:11:08.864Z,1.72
2019-04-29T15:13:37.065Z,1.70
2019-04-29T15:16:18.108Z,2.05
2019-04-29T15:19:12.673Z,1.85
2019-04-29T15:21:49.358Z,1.57
2019-04-29T15:24:20.101Z,2.10
2019-04-29T15:26:50.754Z,1.42
2019-04-29T15:29:21.389Z,1.80
2019-04-29T15:31:52.970Z,1.95
2019-04-29T15:34:23.650Z,1.70
2019-04-29T15:36:54.733Z,1.55
2019-04-29T15:39:25.972Z,1.50
2019-04-29T15:41:57.024Z,1.40
2019-04-29T15:44:27.778Z,2.00
2019-04-29T15:46:58.499Z,1.60
2019-04-29T15:49:29.180Z,1.75
2019-04-29T15:51:59.842Z,1.62
2019-04-29T15:54:31.905Z,1.62
2019-04-29T15:57:03.789Z,1.82
2019-04-29T15:59:48.549Z,1.70
2019-04-29T16:02:09.751Z,1.95
2019-04-29T16:04:47.324Z,1.62
2019-04-29T16:07:39.520Z,2.10
2019-04-29T16:10:30.419Z,1.90
2019-04-29T16:13:04.440Z,1.70
2019-04-29T16:15:35.804Z,2.00
2019-04-29T16:18:10.787Z,1.72
2019-04-29T16:20:39.376Z,2.00
2019-04-29T16:23:10.674Z,1.95
2019-04-29T16:25:46.489Z,2.20
2019-04-29T16:28:14.373Z,1.87
2019-04-29T16:30:45.383Z,1.95
2019-04-29T16:33:17.714Z,2.00
2019-04-29T16:35:48.467Z,2.00
2019-04-29T16:38:19.270Z,80.47
2019-04-29T16:40:57.340Z,86.90
2019-04-29T16:43:34.690Z,88.05
2019-04-29T16:46:12.133Z,58.30
2019-04-29T16:48:44.925Z,42.33
2019-04-29T16:51:16.720Z,85.35
2019-04-29T16:53:47.655Z,67.92
2019-04-29T16:59:45.831Z,4.17
2019-04-29T17:02:19.529Z,4.00
2019-04-29T17:04:50.163Z,2.70
2019-04-29T17:07:21.297Z,3.58
2019-04-29T17:10:10.889Z,2.67
2019-04-29T17:12:46.455Z,2.42
2019-04-29T17:15:24.643Z,2.72
2019-04-29T17:17:49.513Z,3.22
2019-04-29T17:20:20.567Z,3.02
2019-04-29T17:22:51.392Z,2.50
2019-04-29T17:25:22.131Z,5.03
2019-04-29T17:28:24.287Z,3.10
2019-04-29T17:31:18.688Z,2.95
2019-04-29T17:33:57.329Z,3.05
2019-04-29T17:36:28.621Z,2.95
2019-04-29T17:39:00.934Z,2.33
2019-04-29T17:41:33.394Z,2.80
2019-04-29T17:44:35.867Z,2.67
2019-04-29T17:47:25.512Z,2.42
2019-04-29T17:50:02.179Z,2.20
2019-04-29T17:52:35.276Z,2.77
2019-04-29T17:55:37.874Z,2.72
2019-04-29T17:58:19.538Z,2.42
2019-04-29T18:01:11.069Z,3.05
2019-04-29T18:04:00.703Z,2.90
2019-04-29T18:06:41.831Z,3.08
2019-04-29T18:09:27.950Z,3.08
2019-04-29T18:12:00.826Z,3.05
2019-04-29T18:14:37.878Z,2.75
2019-04-29T18:17:05.845Z,2.62
2019-04-29T18:20:01.409Z,2.90
2019-04-29T18:22:59.911Z,2.85
2019-04-29T18:25:44.810Z,3.10
2019-04-29T18:28:16.257Z,2.80
2019-04-29T18:30:49.666Z,2.90
2019-04-29T18:33:23.400Z,3.27
2019-04-29T18:36:02.114Z,3.00
2019-04-29T18:38:26.829Z,3.33
2019-04-29T18:40:58.444Z,2.92
2019-04-29T18:43:29.155Z,2.90
2019-04-29T18:45:59.786Z,3.00
2019-04-29T18:48:32.508Z,2.72
2019-04-29T18:51:03.329Z,3.10
2019-04-29T18:53:35.427Z,3.02
2019-04-29T18:56:06.597Z,112.62
2019-04-29T18:58:37.348Z,46.25
2019-04-29T19:01:08.242Z,10.70
2019-04-29T19:03:48.651Z,7.72
2019-04-29T19:06:20.958Z,4.25
2019-04-29T19:08:56.630Z,3.20
2019-04-29T19:11:32.499Z,3.40
2019-04-29T19:13:59.317Z,3.45
2019-04-29T19:16:30.195Z,2.85
2019-04-29T19:19:01.828Z,3.17
2019-04-29T19:21:33.206Z,7.53
2019-04-29T19:24:04.871Z,4.70
2019-04-29T19:26:35.866Z,3.87
2019-04-29T19:29:09.398Z,2.90
2019-04-29T19:31:48.081Z,2.83
2019-04-29T19:34:14.797Z,2.60
2019-04-29T19:36:45.148Z,3.02
2019-04-29T19:39:16.995Z,2.60
2019-04-29T19:41:50.440Z,2.60
2019-04-29T19:44:20.928Z,2.58
2019-04-29T19:46:51.585Z,3.25
2019-04-29T19:49:22.273Z,2.72
2019-04-29T19:51:52.991Z,2.80
2019-04-29T19:54:28.261Z,2.60
2019-04-29T19:57:03.311Z,2.90
2019-04-29T19:59:28.840Z,2.80
2019-04-29T20:02:05.849Z,3.35
2019-04-29T20:04:40.823Z,3.08
2019-04-29T20:07:12.440Z,3.08
2019-04-29T20:09:44.319Z,3.33
2019-04-29T20:12:17.601Z,2.98
2019-04-29T20:14:48.874Z,2.87
2019-04-29T20:17:45.708Z,3.00
2019-04-29T20:20:20.541Z,3.02
2019-04-29T20:22:51.580Z,2.85
2019-04-29T20:25:29.633Z,2.87
2019-04-29T20:28:05.539Z,3.35
2019-04-29T20:30:27.400Z,3.33
2019-04-29T20:33:01.163Z,3.50
2019-04-29T20:35:30.690Z,3.50
2019-04-29T20:38:02.704Z,3.62
2019-04-29T20:40:36.264Z,3.65
2019-04-29T20:43:08.394Z,3.60
2019-04-29T20:45:38.451Z,3.20
2019-04-29T20:48:11.129Z,3.40
2019-04-29T20:50:47.739Z,3.40
2019-04-29T20:53:36.090Z,3.05
2019-04-29T20:56:12.008Z,3.08
2019-04-29T20:58:38.950Z,2.87
2019-04-29T21:01:13.119Z,2.87
2019-04-29T21:03:48.455Z,2.45
2019-04-29T21:06:17.057Z,2.95
2019-04-29T21:08:51.224Z,3.10
2019-04-29T21:11:27.096Z,2.75
2019-04-29T21:14:16.643Z,2.87
2019-04-29T21:16:48.792Z,2.90
2019-04-29T21:19:19.473Z,2.80
2019-04-29T21:21:50.245Z,3.00
2019-04-29T21:24:20.938Z,2.80
2019-04-29T21:26:52.078Z,2.75
2019-04-29T21:29:22.707Z,2.83
2019-04-29T21:31:58.412Z,2.80
2019-04-29T21:34:29.660Z,2.85
2019-04-29T21:37:10.058Z,2.52
2019-04-29T21:39:57.380Z,2.58
2019-04-29T21:42:36.991Z,2.50
2019-04-29T21:45:09.899Z,3.33
2019-04-29T21:47:44.492Z,2.83
2019-04-29T21:50:15.035Z,2.62
2019-04-29T21:52:46.898Z,2.70
2019-04-29T21:55:20.634Z,2.67
2019-04-29T21:57:50.033Z,2.80
2019-04-29T22:00:25.776Z,2.90
2019-04-29T22:02:59.829Z,2.80
2019-04-29T22:05:34.936Z,2.67
2019-04-29T22:08:05.949Z,2.85
2019-04-29T22:10:38.470Z,2.40
2019-04-29T22:13:10.134Z,2.30
2019-04-29T22:15:42.594Z,2.75
2019-04-29T22:18:16.034Z,2.60
2019-04-29T22:20:46.268Z,2.52
2019-04-29T22:23:18.092Z,2.52
2019-04-29T22:25:49.874Z,2.83
2019-04-29T22:28:30.825Z,2.85
2019-04-29T22:31:07.669Z,2.85
2019-04-29T22:33:38.648Z,3.08
2019-04-29T22:36:18.097Z,3.00
2019-04-29T22:38:51.975Z,2.87
2019-04-29T22:41:40.366Z,3.85
2019-04-29T22:44:15.134Z,3.25
2019-04-29T22:46:47.270Z,3.20
2019-04-29T22:49:24.467Z,2.70
2019-04-29T22:51:54.569Z,2.77
2019-04-29T22:54:25.207Z,2.70
2019-04-29T22:56:56.843Z,2.87
2019-04-29T22:59:29.209Z,2.70
2019-04-29T23:02:01.592Z,2.85
2019-04-29T23:04:32.280Z,2.72
2019-04-29T23:07:04.088Z,3.25
2019-04-29T23:09:36.623Z,3.45
2019-04-29T23:12:09.764Z,3.15
2019-04-29T23:14:40.241Z,3.00
2019-04-29T23:17:13.232Z,3.62
2019-04-29T23:19:46.616Z,3.25
2019-04-29T23:22:37.345Z,2.90
2019-04-29T23:25:29.895Z,2.90
2019-04-29T23:27:59.286Z,3.17
2019-04-29T23:30:30.014Z,3.12
2019-04-29T23:33:00.711Z,3.05
2019-04-29T23:35:31.406Z,2.87
2019-04-29T23:38:04.034Z,2.85
2019-04-29T23:40:34.405Z,3.00
2019-04-29T23:43:06.156Z,3.33
2019-04-29T23:45:37.137Z,3.08
2019-04-29T23:48:07.741Z,3.15
2019-04-29T23:50:38.392Z,3.10
2019-04-29T23:53:08.995Z,3.12
2019-04-29T23:55:40.658Z,3.20
2019-04-29T23:58:42.528Z,2.47
